Time;durP1;ratioP1;P1;durP2;ratioP2;P2;SDS_P1;SDS_P2;PMS_P1;PMS_P2;Temp;Humidity;BMP_temperature;BMP_pressure;BME280_temperature;BME280_humidity;BME280_pressure;Samples;Min_cycle;Max_cycle;Signal;HPM_P1;HPM_P2
2021/05/08 00:00:23;;;;;;;7.03;3.55;;;;;;;3.69;85.65;99845.64;1672082;84;21046;-85
2021/05/08 00:02:49;;;;;;;5.95;4.03;;;;;;;3.69;85.75;99848.25;1692908;83;21623;-85
2021/05/08 00:05:17;;;;;;;7.33;5.15;;;;;;;3.61;86.07;99854.07;1690926;83;21137;-84
2021/05/08 00:07:44;;;;;;;7.17;4.92;;;;;;;3.66;86.35;99845.88;1689153;83;21688;-87
2021/05/08 00:10:17;;;;;;;7.87;5.42;;;;;;;3.75;86.48;99847.78;1690600;82;21216;-85
2021/05/08 00:12:45;;;;;;;9.00;5.00;;;;;;;3.90;86.38;99850.95;1696391;83;21234;-86
2021/05/08 00:15:15;;;;;;;8.28;5.37;;;;;;;3.97;86.14;99837.77;1691419;83;21254;-85
2021/05/08 00:17:41;;;;;;;7.87;4.58;;;;;;;3.91;86.68;99837.77;1689838;83;21248;-85
2021/05/08 00:20:12;;;;;;;6.12;4.40;;;;;;;4.05;86.88;99857.58;1689018;83;21150;-84
2021/05/08 00:22:39;;;;;;;6.42;4.08;;;;;;;4.27;86.41;99848.88;1683215;84;21116;-84
2021/05/08 00:25:11;;;;;;;5.63;4.00;;;;;;;4.39;86.41;99856.69;1693315;84;21080;-85
2021/05/08 00:27:40;;;;;;;5.12;3.75;;;;;;;4.43;86.44;99863.34;1688037;84;21242;-85
2021/05/08 00:30:09;;;;;;;5.47;3.70;;;;;;;4.41;86.60;99864.77;1669763;83;21152;-85
2021/05/08 00:32:37;;;;;;;6.17;3.67;;;;;;;4.51;86.20;99860.11;1691213;84;21243;-86
2021/05/08 00:35:05;;;;;;;;;;;;;;;4.52;86.83;99863.87;1694477;82;21232;-85
2021/05/08 00:37:35;;;;;;;5.72;3.92;;;;;;;4.45;87.65;99871.87;1690274;82;20291;-85
2021/05/08 00:40:03;;;;;;;7.17;3.70;;;;;;;4.67;86.90;99873.09;1692798;83;21237;-84
2021/05/08 00:42:30;;;;;;;6.40;3.80;;;;;;;4.58;87.71;99876.94;1717348;82;21197;-85
2021/05/08 00:44:57;;;;;;;;;;;;;;;4.77;87.29;99884.11;1693873;84;22082;-85
2021/05/08 00:47:25;;;;;;;5.10;3.47;;;;;;;4.73;87.74;99881.41;1691991;83;20461;-86
2021/05/08 00:49:51;;;;;;;4.83;3.40;;;;;;;4.77;87.73;99877.11;1647281;84;21203;-86
2021/05/08 00:52:18;;;;;;;5.33;3.80;;;;;;;4.91;87.63;99879.91;1687442;83;24021;-85
2021/05/08 00:54:43;;;;;;;5.70;3.95;;;;;;;5.07;87.33;99884.70;1688768;84;21212;-85
2021/05/08 00:57:12;;;;;;;6.53;3.67;;;;;;;5.03;87.43;99891.98;1690668;83;22073;-85
2021/05/08 00:59:38;;;;;;;4.92;3.52;;;;;;;5.12;87.08;99890.37;1689478;84;21209;-85
2021/05/08 01:02:04;;;;;;;4.63;3.60;;;;;;;5.19;87.17;99903.31;1688379;84;21077;-87
2021/05/08 01:04:34;;;;;;;5.50;3.77;;;;;;;5.18;87.52;99898.20;1694281;83;22395;-85
2021/05/08 01:07:07;;;;;;;5.40;3.40;;;;;;;5.26;87.45;99902.31;1690392;83;21212;-85
2021/05/08 01:09:32;;;;;;;5.30;3.67;;;;;;;5.50;86.81;99901.20;1692359;84;21619;-83
2021/05/08 01:11:58;;;;;;;5.00;3.70;;;;;;;5.55;86.43;99902.98;1695111;82;22513;-91
2021/05/08 01:14:26;;;;;;;5.03;3.83;;;;;;;5.58;86.41;99900.09;1692369;82;21003;-91
2021/05/08 01:16:52;;;;;;;6.10;4.40;;;;;;;5.64;86.56;99904.81;1691884;83;21623;-83
2021/05/08 01:19:20;;;;;;;5.10;4.07;;;;;;;5.55;86.46;99902.98;1695296;83;25705;-85
2021/05/08 01:21:45;;;;;;;4.65;4.12;;;;;;;5.52;86.95;99908.47;1718237;82;21229;-83
2021/05/08 01:24:11;;;;;;;6.57;4.80;;;;;;;5.70;86.22;99905.61;1689977;83;21552;-84
2021/05/08 01:26:41;;;;;;;6.30;4.90;;;;;;;5.89;85.86;99905.34;1691779;83;20982;-86
2021/05/08 01:29:09;;;;;;;7.28;5.55;;;;;;;5.89;85.94;99908.78;1687195;83;21249;-83
2021/05/08 01:31:34;;;;;;;7.85;5.28;;;;;;;5.92;85.96;99912.94;1696337;83;21635;-83
2021/05/08 01:34:02;;;;;;;8.53;5.80;;;;;;;5.98;85.80;99920.31;1693285;82;22179;-84
2021/05/08 01:36:28;;;;;;;;;;;;;;;5.91;85.94;99922.58;1694444;82;21171;-87
2021/05/08 01:39:01;;;;;;;10.37;6.07;;;;;;;5.91;86.09;99925.69;1690730;83;20885;-81
2021/05/08 01:41:27;;;;;;;9.00;6.58;;;;;;;6.00;86.05;99925.42;1690905;83;21199;-82
2021/05/08 01:43:55;;;;;;;7.87;6.20;;;;;;;5.94;86.75;99927.55;1661622;84;26168;-82
2021/05/08 01:46:20;;;;;;;;;;;;;;;5.92;86.88;99923.42;1693700;82;21628;-84
2021/05/08 01:48:47;;;;;;;8.03;6.17;;;;;;;6.06;86.57;99926.17;1697395;82;20513;-83
2021/05/08 01:51:13;;;;;;;11.15;7.30;;;;;;;6.13;86.52;99926.48;1673466;83;21276;-84
2021/05/08 01:53:41;;;;;;;9.65;7.20;;;;;;;6.14;86.62;99924.20;1690608;84;21475;-84
2021/05/08 01:56:07;;;;;;;9.43;6.95;;;;;;;6.07;86.74;99923.91;1690095;83;21200;-84
2021/05/08 01:58:36;;;;;;;11.23;7.83;;;;;;;6.28;86.57;99932.53;1690614;84;21102;-85
2021/05/08 02:01:04;;;;;;;10.53;7.30;;;;;;;6.45;85.87;99932.37;1687816;82;21117;-85
2021/05/08 02:03:30;;;;;;;10.58;7.75;;;;;;;6.11;86.56;99934.00;1689605;83;21259;-85
2021/05/08 02:05:55;;;;;;;9.68;7.35;;;;;;;6.29;86.50;99935.52;1695407;83;28198;-84
2021/05/08 02:08:21;;;;;;;11.00;8.05;;;;;;;6.24;86.34;99936.38;1686925;83;26693;-84
2021/05/08 02:10:47;;;;;;;10.93;8.30;;;;;;;6.36;86.58;99946.29;1691525;83;21283;-83
2021/05/08 02:13:14;;;;;;;11.80;9.17;;;;;;;6.26;86.71;99945.42;1715963;82;22971;-83
2021/05/08 02:15:40;;;;;;;11.33;9.20;;;;;;;6.35;86.71;99946.42;1694617;84;21384;-84
2021/05/08 02:18:08;;;;;;;12.20;9.45;;;;;;;6.47;86.26;99947.48;1690490;84;26659;-83
2021/05/08 02:20:37;;;;;;;13.88;9.88;;;;;;;6.31;86.90;99958.98;1671729;82;21737;-83
2021/05/08 02:23:10;;;;;;;13.98;10.50;;;;;;;6.51;86.48;99963.80;1690463;84;22009;-83
2021/05/08 02:25:36;;;;;;;16.87;10.98;;;;;;;6.52;86.62;99957.57;1685795;84;21626;-84
2021/05/08 02:28:02;;;;;;;15.07;11.33;;;;;;;6.60;86.74;99964.77;1687458;84;20926;-83
2021/05/08 02:30:33;;;;;;;18.45;12.37;;;;;;;6.72;86.49;99968.94;1692553;83;21512;-83
2021/05/08 02:33:01;;;;;;;16.62;12.43;;;;;;;6.67;86.78;99973.77;1687378;84;21180;-85
2021/05/08 02:35:28;;;;;;;18.05;14.40;;;;;;;6.75;86.97;99977.85;1690144;83;21415;-83
2021/05/08 02:37:59;;;;;;;22.37;13.83;;;;;;;6.75;87.26;99974.41;1670753;84;21224;-82
2021/05/08 02:40:28;;;;;;;19.05;15.43;;;;;;;6.82;86.93;99967.17;1700765;82;21196;-86
2021/05/08 02:42:54;;;;;;;22.93;16.95;;;;;;;6.72;87.54;99975.98;1692603;82;21349;-85
2021/05/08 02:45:21;;;;;;;22.75;16.23;;;;;;;6.80;87.50;99984.83;1690185;84;21181;-84
2021/05/08 02:47:49;;;;;;;25.00;16.60;;;;;;;6.90;87.28;99979.61;1694025;84;21331;-85
2021/05/08 02:50:21;;;;;;;21.17;16.20;;;;;;;6.99;87.51;99977.48;1691490;83;21606;-86
2021/05/08 02:52:50;;;;;;;25.27;18.27;;;;;;;6.99;87.51;99977.48;1689577;84;21775;-87
2021/05/08 02:55:22;;;;;;;23.95;18.40;;;;;;;6.93;87.85;99991.15;1690145;83;22281;-90
2021/05/08 02:57:50;;;;;;;27.32;19.23;;;;;;;6.98;87.89;99990.73;1689439;83;21240;-87
2021/05/08 03:00:21;;;;;;;22.82;18.70;;;;;;;7.11;87.36;99996.53;1689671;84;21359;-87
2021/05/08 03:02:50;;;;;;;24.82;19.37;;;;;;;7.16;87.30;99995.66;1689426;83;21234;-84
2021/05/08 03:05:17;;;;;;;24.67;18.45;;;;;;;7.23;86.97;99998.55;1689913;83;21667;-84
2021/05/08 03:07:45;;;;;;;22.42;17.95;;;;;;;7.15;87.16;99998.42;1670454;84;21263;-85
2021/05/08 03:10:16;;;;;;;;;;;;;;;7.32;86.71;100003.47;1692591;83;21257;-84
2021/05/08 03:12:49;;;;;;;20.88;16.82;;;;;;;7.07;87.51;100008.30;1692106;83;21030;-84
2021/05/08 03:15:18;;;;;;;20.15;15.78;;;;;;;7.32;87.02;100004.29;1690909;83;21107;-84
2021/05/08 03:17:45;;;;;;;22.35;16.17;;;;;;;7.26;87.15;100018.47;1689200;83;21257;-84
2021/05/08 03:20:13;;;;;;;;;;;;;;;7.38;86.54;100010.80;1691767;84;21270;-84
2021/05/08 03:22:40;;;;;;;16.77;12.50;;;;;;;7.46;86.49;100025.38;1687715;83;20609;-85
2021/05/08 03:25:08;;;;;;;17.02;11.97;;;;;;;7.50;85.96;100021.52;1689859;83;21230;-85
2021/05/08 03:27:34;;;;;;;15.88;11.68;;;;;;;7.40;85.55;100037.75;1689540;83;21220;-84
2021/05/08 03:30:04;;;;;;;15.73;11.23;;;;;;;7.31;85.57;100038.58;1690208;83;22810;-82
2021/05/08 03:32:34;;;;;;;13.05;10.88;;;;;;;7.32;85.52;100037.62;1718570;82;21209;-84
2021/05/08 03:34:59;;;;;;;15.65;9.98;;;;;;;7.49;85.32;100036.92;1690232;83;21665;-86
2021/05/08 03:37:27;;;;;;;11.70;9.03;;;;;;;7.42;85.60;100039.74;1690975;83;22727;-86
2021/05/08 03:39:55;;;;;;;14.70;9.00;;;;;;;7.37;85.32;100048.53;1666795;84;21247;-85
2021/05/08 03:42:23;;;;;;;13.15;9.68;;;;;;;7.32;85.50;100048.13;1691564;83;21219;-85
2021/05/08 03:44:50;;;;;;;10.75;8.65;;;;;;;7.36;85.63;100052.12;1690227;83;21717;-84
2021/05/08 03:47:17;;;;;;;11.70;8.90;;;;;;;7.41;85.62;100061.75;1689003;83;21185;-86
2021/05/08 03:49:43;;;;;;;12.55;8.83;;;;;;;7.26;86.19;100057.87;1689226;83;21855;-85
2021/05/08 03:52:13;;;;;;;11.97;8.30;;;;;;;7.51;85.40;100060.43;1694847;82;21195;-86
2021/05/08 03:54:40;;;;;;;12.37;8.78;;;;;;;7.55;85.23;100061.33;1690380;82;21192;-85
2021/05/08 03:57:06;;;;;;;;;;;;;;;7.32;85.58;100065.20;1672513;84;21129;-85
2021/05/08 03:59:34;;;;;;;11.90;7.85;;;;;;;7.27;86.27;100072.64;1690105;82;26927;-87
2021/05/08 04:02:05;;;;;;;11.53;8.40;;;;;;;7.13;85.79;100079.11;1672996;83;21168;-86
2021/05/08 04:04:30;;;;;;;10.72;7.95;;;;;;;6.97;85.77;100066.52;1691491;84;21245;-86
2021/05/08 04:06:56;;;;;;;12.88;7.87;;;;;;;7.14;85.56;100084.23;1694699;83;25944;-80
2021/05/08 04:09:24;;;;;;;10.15;7.80;;;;;;;7.12;85.27;100078.30;1694380;83;28372;-80
2021/05/08 04:11:57;;;;;;;11.68;7.33;;;;;;;7.16;85.53;100087.58;1689294;84;21273;-84
2021/05/08 04:14:23;;;;;;;10.05;7.40;;;;;;;7.15;84.68;100096.41;1690662;84;21196;-84
2021/05/08 04:16:49;;;;;;;9.83;6.90;;;;;;;6.99;84.40;100088.20;1689940;83;21643;-86
2021/05/08 04:19:16;;;;;;;11.00;7.00;;;;;;;6.93;84.22;100104.49;1691618;83;22795;-85
2021/05/08 04:21:41;;;;;;;8.88;6.42;;;;;;;6.78;85.11;100105.36;1689137;83;21208;-86
2021/05/08 04:24:08;;;;;;;11.08;7.00;;;;;;;6.72;83.99;100114.58;1689384;83;26303;-84
2021/05/08 04:26:37;;;;;;;8.28;6.25;;;;;;;6.92;83.71;100106.30;1671430;84;21216;-84
2021/05/08 04:29:03;;;;;;;9.38;6.40;;;;;;;6.95;83.33;100113.09;1713618;82;21237;-83
2021/05/08 04:31:29;;;;;;;8.33;6.17;;;;;;;6.75;83.78;100112.19;1691253;83;21738;-85
2021/05/08 04:34:01;;;;;;;8.93;6.17;;;;;;;6.90;83.22;100104.30;1689854;84;28520;-87
2021/05/08 04:36:28;;;;;;;8.73;6.97;;;;;;;6.89;83.11;100110.99;1693576;81;21149;-83
2021/05/08 04:38:54;;;;;;;9.50;6.70;;;;;;;6.75;83.91;100118.75;1694582;81;21806;-83
2021/05/08 04:41:21;;;;;;;11.17;7.90;;;;;;;6.78;84.23;100115.37;1694112;82;26076;-86
2021/05/08 04:43:50;;;;;;;;;;;;;;;6.72;84.86;100115.89;1692848;82;21152;-83
2021/05/08 04:46:23;;;;;;;10.15;8.40;;;;;;;6.82;84.65;100132.98;1700248;82;20117;-84
2021/05/08 04:48:53;;;;;;;10.03;7.45;;;;;;;6.90;83.57;100120.51;1703323;82;21073;-85
2021/05/08 04:51:20;;;;;;;11.78;8.10;;;;;;;7.07;82.96;100119.89;1693501;83;21199;-86
2021/05/08 04:53:48;;;;;;;10.53;7.47;;;;;;;6.78;83.87;100132.91;1691665;84;21273;-83
2021/05/08 04:56:17;;;;;;;9.15;7.15;;;;;;;6.83;83.87;100139.41;1688875;83;21634;-84
2021/05/08 04:58:45;;;;;;;9.88;6.85;;;;;;;6.91;84.12;100127.43;1690013;83;21240;-84
2021/05/08 05:01:12;;;;;;;8.70;6.53;;;;;;;6.56;84.91;100143.11;1670194;84;21160;-85
2021/05/08 05:03:38;;;;;;;;;;;;;;;6.75;84.60;100139.25;1687535;83;21215;-86
2021/05/08 05:06:06;;;;;;;7.47;6.03;;;;;;;7.11;83.58;100159.34;1665458;84;27437;-84
2021/05/08 05:08:34;;;;;;;9.83;6.33;;;;;;;6.85;84.38;100158.14;1688482;83;21404;-84
2021/05/08 05:11:00;;;;;;;;;;;;;;;6.95;83.65;100155.09;1690241;83;21208;-85
2021/05/08 05:13:25;;;;;;;9.80;7.20;;;;;;;6.88;84.62;100167.07;1690149;83;20195;-87
2021/05/08 05:15:56;;;;;;;12.60;8.63;;;;;;;6.80;84.70;100175.11;1667538;84;22193;-85
2021/05/08 05:18:23;;;;;;;12.05;8.58;;;;;;;6.86;84.67;100170.31;1691079;84;21268;-86
2021/05/08 05:20:53;;;;;;;13.23;9.90;;;;;;;6.92;84.46;100162.73;1690466;83;22854;-85
2021/05/08 05:23:20;;;;;;;14.30;9.45;;;;;;;6.97;84.33;100172.34;1655179;84;21193;-84
2021/05/08 05:25:46;;;;;;;14.15;10.40;;;;;;;7.11;84.24;100171.16;1691001;83;21204;-85
2021/05/08 05:28:27;;;;;;;16.02;10.98;;;;;;;7.03;84.27;100170.18;1688897;83;21361;-85
2021/05/08 05:30:53;;;;;;;16.15;11.18;;;;;;;6.89;83.79;100172.19;1687830;82;21210;-85
2021/05/08 05:33:20;;;;;;;16.70;11.03;;;;;;;6.85;84.59;100173.89;1672224;84;21590;-85
2021/05/08 05:35:55;;;;;;;14.38;10.70;;;;;;;6.96;83.75;100172.48;1693038;83;21196;-84
2021/05/08 05:38:22;;;;;;;13.30;10.03;;;;;;;7.08;83.72;100177.16;1690535;84;21280;-87
2021/05/08 05:40:47;;;;;;;11.83;9.90;;;;;;;7.14;82.38;100198.95;1692848;84;21171;-83
2021/05/08 05:43:14;;;;;;;11.90;9.38;;;;;;;7.15;82.66;100180.44;1691784;83;21253;-85
2021/05/08 05:45:41;;;;;;;10.43;8.03;;;;;;;7.08;83.25;100183.73;1692409;83;26165;-85
2021/05/08 05:48:10;;;;;;;11.95;8.58;;;;;;;7.32;81.69;100184.23;1693787;83;21189;-82
2021/05/08 05:50:38;;;;;;;9.93;7.97;;;;;;;7.47;81.29;100195.20;1693718;83;21140;-87
2021/05/08 05:53:05;;;;;;;10.38;7.78;;;;;;;7.57;81.25;100193.05;1692644;83;21135;-86
2021/05/08 05:55:31;;;;;;;10.25;7.85;;;;;;;7.63;80.99;100199.92;1694894;82;21199;-86
2021/05/08 05:57:58;;;;;;;10.28;8.23;;;;;;;7.67;80.59;100199.16;1697833;82;24622;-85
2021/05/08 06:00:27;;;;;;;16.52;8.83;;;;;;;7.77;80.41;100206.59;1691592;83;21217;-87
2021/05/08 06:02:55;;;;;;;10.58;8.55;;;;;;;7.72;80.22;100214.03;1692308;82;21199;-82
2021/05/08 06:05:22;;;;;;;10.58;7.47;;;;;;;7.71;80.33;100218.96;1690040;84;21243;-86
2021/05/08 06:07:48;;;;;;;;;;;;;;;7.77;78.77;100207.05;1689512;84;21642;-83
2021/05/08 06:10:17;;;;;;;12.37;7.42;;;;;;;7.77;78.66;100219.73;1688930;83;20145;-85
2021/05/08 06:12:45;;;;;;;11.40;7.17;;;;;;;7.73;78.82;100216.52;1690776;83;21252;-84
2021/05/08 06:15:15;;;;;;;9.40;6.53;;;;;;;7.86;78.16;100212.34;1670156;83;21186;-83
2021/05/08 06:17:44;;;;;;;9.93;6.67;;;;;;;7.78;78.15;100220.55;1692413;83;21385;-83
2021/05/08 06:20:13;;;;;;;10.43;6.50;;;;;;;8.00;77.54;100218.14;1695347;83;21204;-83
2021/05/08 06:22:38;;;;;;;7.78;6.00;;;;;;;7.96;77.64;100218.09;1697695;82;21258;-83
2021/05/08 06:25:05;;;;;;;8.50;5.87;;;;;;;8.07;76.78;100225.34;1696212;82;28273;-83
2021/05/08 06:27:35;;;;;;;7.33;5.65;;;;;;;8.34;77.27;100227.75;1693866;83;21205;-83
2021/05/08 06:30:01;;;;;;;9.55;6.05;;;;;;;8.45;76.46;100216.28;1693538;83;21082;-83
2021/05/08 06:32:28;;;;;;;8.93;6.45;;;;;;;8.63;76.52;100219.85;1720442;82;26911;-82
2021/05/08 06:34:56;;;;;;;;;;;;;;;8.45;76.17;100230.75;1697328;84;22460;-83
2021/05/08 06:37:22;;;;;;;9.58;6.80;;;;;;;8.58;75.21;100237.88;1693609;83;20298;-84
2021/05/08 06:39:48;;;;;;;11.33;6.75;;;;;;;8.60;75.35;100228.03;1675919;83;27174;-83
2021/05/08 06:42:18;;;;;;;9.33;6.20;;;;;;;8.40;75.15;100222.43;1693193;83;22100;-83
2021/05/08 06:44:49;;;;;;;13.95;6.60;;;;;;;8.49;74.89;100239.22;1697442;83;21180;-84
2021/05/08 06:47:15;;;;;;;8.85;6.37;;;;;;;8.52;74.85;100241.08;1698489;82;21177;-87
2021/05/08 06:49:46;;;;;;;9.65;6.10;;;;;;;8.77;74.40;100234.87;1673918;82;21202;-84
2021/05/08 06:52:13;;;;;;;6.78;5.37;;;;;;;8.34;75.64;100240.09;1688184;84;21204;-84
2021/05/08 06:54:41;;;;;;;7.62;5.20;;;;;;;8.49;74.27;100245.30;1664565;84;21215;-83
2021/05/08 06:57:07;;;;;;;;;;;;;;;8.86;73.64;100237.97;1694029;82;21243;-83
2021/05/08 06:59:34;;;;;;;7.45;5.65;;;;;;;8.65;74.21;100234.69;1692261;82;20168;-86
2021/05/08 07:02:04;;;;;;;7.70;5.67;;;;;;;8.81;74.15;100240.20;1692608;82;21187;-84
2021/05/08 07:04:33;;;;;;;8.80;6.17;;;;;;;8.89;74.06;100235.05;1693408;83;21146;-84
2021/05/08 07:07:01;;;;;;;9.95;6.47;;;;;;;9.09;73.68;100236.28;1693591;83;21205;-84
2021/05/08 07:09:26;;;;;;;;;;;;;;;9.04;74.20;100241.16;1692683;83;21196;-83
2021/05/08 07:11:52;;;;;;;10.20;6.20;;;;;;;8.92;75.37;100243.98;1687487;83;25334;-84
2021/05/08 07:14:21;;;;;;;9.65;6.65;;;;;;;9.11;74.73;100239.63;1691815;83;28465;-85
2021/05/08 07:16:50;;;;;;;12.10;7.22;;;;;;;9.37;74.32;100240.26;1693314;83;21201;-87
2021/05/08 07:19:18;;;;;;;8.20;5.83;;;;;;;9.10;73.82;100239.27;1687966;84;21264;-86
2021/05/08 07:21:44;;;;;;;;;;;;;;;9.28;72.00;100245.44;1671104;84;21268;-85
2021/05/08 07:24:13;;;;;;;9.78;6.00;;;;;;;9.17;73.01;100268.03;1670098;83;20255;-84
2021/05/08 07:26:40;;;;;;;11.68;5.87;;;;;;;9.20;73.53;100242.70;1690156;83;21191;-85
2021/05/08 07:29:06;;;;;;;;;;;;;;;9.31;74.10;100258.33;1692976;83;21173;-85
2021/05/08 07:31:35;;;;;;;9.70;5.90;;;;;;;9.05;75.09;100270.49;1691611;82;21379;-85
2021/05/08 07:34:03;;;;;;;10.30;5.50;;;;;;;9.16;74.81;100267.67;1692455;83;21207;-87
2021/05/08 07:36:32;;;;;;;9.80;5.97;;;;;;;9.07;74.79;100263.27;1714969;82;21643;-82
2021/05/08 07:39:02;;;;;;;8.35;5.80;;;;;;;8.97;75.03;100261.48;1691466;82;21076;-86
2021/05/08 07:41:27;;;;;;;;;;;;;;;8.82;75.69;100272.13;1699075;82;21172;-84
2021/05/08 07:44:03;;;;;;;9.60;5.80;;;;;;;9.09;74.87;100261.31;1691276;84;21196;-83
2021/05/08 07:46:30;;;;;;;9.73;5.55;;;;;;;9.31;74.44;100259.64;1671749;83;21152;-83
2021/05/08 07:48:56;;;;;;;;;;;;;;;9.32;73.46;100259.99;1694501;83;21171;-83
2021/05/08 07:51:22;;;;;;;8.20;5.12;;;;;;;9.38;72.43;100265.65;1692328;83;28429;-83
2021/05/08 07:53:53;;;;;;;8.18;4.58;;;;;;;9.53;72.04;100269.47;1671335;84;26775;-83
2021/05/08 07:56:19;;;;;;;8.80;4.72;;;;;;;9.70;71.19;100263.39;1696323;83;21217;-86
2021/05/08 07:58:44;;;;;;;9.43;4.55;;;;;;;9.43;71.63;100281.84;1672805;84;27228;-84
2021/05/08 08:01:10;;;;;;;7.78;4.53;;;;;;;9.30;70.69;100276.92;1699643;82;25919;-86
2021/05/08 08:03:38;;;;;;;10.20;5.00;;;;;;;9.36;70.32;100275.52;1700037;82;29028;-86
2021/05/08 08:06:13;;;;;;;10.48;5.15;;;;;;;9.30;69.77;100272.47;1691164;83;21156;-87
2021/05/08 08:08:39;;;;;;;12.75;5.95;;;;;;;9.68;70.34;100291.73;1696170;84;21153;-83
2021/05/08 08:11:09;;;;;;;8.73;4.72;;;;;;;9.69;70.51;100274.94;1690045;83;27003;-83
2021/05/08 08:13:37;;;;;;;8.38;4.67;;;;;;;9.79;70.52;100288.53;1690753;83;21623;-85
2021/05/08 08:16:11;;;;;;;7.37;4.30;;;;;;;9.70;69.04;100289.77;1695211;84;21177;-84
2021/05/08 08:18:40;;;;;;;8.78;4.40;;;;;;;9.60;67.81;100274.51;1692893;82;21252;-85
2021/05/08 08:21:09;;;;;;;7.28;4.15;;;;;;;9.53;68.31;100278.69;1689513;84;21189;-85
2021/05/08 08:23:35;;;;;;;9.73;4.20;;;;;;;9.94;68.03;100285.73;1688524;84;21197;-83
2021/05/08 08:26:04;;;;;;;8.23;3.90;;;;;;;9.72;66.43;100324.41;1695483;83;25565;-83
2021/05/08 08:28:30;;;;;;;7.40;3.80;;;;;;;9.58;66.68;100286.98;1695820;83;21138;-84
2021/05/08 08:30:56;;;;;;;12.15;4.00;;;;;;;9.83;65.82;100289.91;1673146;83;26244;-83
2021/05/08 08:33:27;;;;;;;8.95;4.20;;;;;;;9.75;65.11;100301.20;1695830;83;21228;-86
2021/05/08 08:35:54;;;;;;;7.15;4.30;;;;;;;9.92;66.13;100285.06;1672974;84;21222;-86
2021/05/08 08:38:23;;;;;;;10.50;4.15;;;;;;;9.89;66.82;100304.65;1695522;84;21252;-85
2021/05/08 08:40:51;;;;;;;9.45;4.20;;;;;;;9.77;66.86;100307.64;1690427;83;21164;-85
2021/05/08 08:43:16;;;;;;;10.13;5.15;;;;;;;9.65;66.27;100290.70;1694486;83;21624;-87
2021/05/08 08:45:44;;;;;;;;;;;;;;;9.59;66.80;100287.34;1700220;83;21395;-88
2021/05/08 08:48:14;;;;;;;9.88;4.30;;;;;;;9.75;67.18;100301.69;1692410;83;20786;-83
2021/05/08 08:50:46;;;;;;;7.75;3.90;;;;;;;9.94;65.94;100296.29;1721249;82;21201;-84
2021/05/08 08:53:14;;;;;;;8.05;3.90;;;;;;;9.97;65.21;100309.19;1678441;83;39621;-84
2021/05/08 08:55:44;;;;;;;11.85;4.00;;;;;;;10.14;65.33;100306.73;1695794;82;21207;-82
2021/05/08 08:58:11;;;;;;;8.55;4.20;;;;;;;10.00;64.53;100314.16;1694647;83;21287;-84
2021/05/08 09:00:40;;;;;;;;;;;;;;;9.91;64.45;100292.62;1685025;83;21192;-84
2021/05/08 09:03:09;;;;;;;8.70;3.85;;;;;;;10.01;64.42;100298.69;1670277;83;20319;-84
2021/05/08 09:05:37;;;;;;;8.05;4.10;;;;;;;10.29;63.06;100334.27;1687438;84;21261;-89
2021/05/08 09:08:08;;;;;;;9.28;4.00;;;;;;;10.33;63.55;100309.74;1671133;84;21594;-87
2021/05/08 09:10:34;;;;;;;8.40;3.90;;;;;;;10.38;64.18;100320.20;1690465;83;22261;-88
2021/05/08 09:13:02;;;;;;;7.05;3.80;;;;;;;10.29;64.03;100338.73;1692953;83;21236;-88
2021/05/08 09:15:46;;;;;;;6.83;3.90;;;;;;;10.30;63.68;100312.19;1693152;83;21326;-87
2021/05/08 09:18:37;;;;;;;8.35;4.25;;;;;;;10.46;62.88;100313.34;1689642;83;21772;-87
2021/05/08 09:21:05;;;;;;;7.87;3.98;;;;;;;10.53;63.11;100313.06;1687638;83;21177;-87
2021/05/08 09:23:39;;;;;;;9.48;3.87;;;;;;;10.51;63.52;100308.44;1646397;84;21845;-90
2021/05/08 09:26:11;;;;;;;8.45;4.15;;;;;;;10.56;62.49;100320.68;1687238;84;21070;-88
2021/05/08 09:28:40;;;;;;;7.65;3.33;;;;;;;10.65;61.48;100318.45;1689905;83;21217;-90
2021/05/08 09:31:10;;;;;;;6.50;3.40;;;;;;;10.70;61.45;100302.96;1693094;83;21192;-89
2021/05/08 09:33:37;;;;;;;7.33;3.52;;;;;;;10.70;60.90;100310.88;1690672;82;21185;-90
2021/05/08 09:36:14;;;;;;;9.18;3.80;;;;;;;10.80;61.29;100308.64;1691118;83;21264;-90
2021/05/08 09:38:46;;;;;;;8.05;3.90;;;;;;;10.94;60.46;100298.87;1692794;83;21844;-87
2021/05/08 09:41:13;;;;;;;7.78;3.62;;;;;;;11.06;60.60;100308.20;1689769;83;21188;-87
2021/05/08 09:43:39;;;;;;;;;;;;;;;11.27;60.68;100307.81;1690972;83;21181;-85
2021/05/08 09:46:05;;;;;;;7.03;3.42;;;;;;;11.13;60.65;100303.11;1689841;83;20235;-84
2021/05/08 09:48:38;;;;;;;6.90;3.10;;;;;;;11.06;59.47;100317.45;1688918;83;21264;-89
2021/05/08 09:51:25;;;;;;;8.95;3.00;;;;;;;11.08;58.43;100310.19;1668929;84;21212;-88
2021/05/08 09:54:13;;;;;;;7.25;3.20;;;;;;;11.11;59.13;100313.84;1644890;86;21200;-89
2021/05/08 09:56:49;;;;;;;6.75;2.60;;;;;;;11.16;58.06;100296.69;1621010;86;21199;-87
2021/05/08 09:59:36;;;;;;;7.87;3.37;;;;;;;11.36;58.11;100302.08;1648482;85;21200;-88
2021/05/08 10:02:13;;;;;;;7.22;2.98;;;;;;;11.08;58.88;100364.36;1644032;86;21364;-87
2021/05/08 10:04:45;;;;;;;6.92;2.87;;;;;;;11.29;60.20;100314.26;1654363;84;21180;-85
2021/05/08 10:07:18;;;;;;;3.42;1.82;;;;;;;11.40;60.38;100308.69;1646180;84;21282;-87
2021/05/08 10:09:49;;;;;;;2.75;1.60;;;;;;;11.22;56.87;100325.96;1646967;84;21260;-84
2021/05/08 10:12:19;;;;;;;4.15;1.70;;;;;;;10.92;54.51;100319.30;1647220;85;21222;-84
2021/05/08 10:14:48;;;;;;;5.25;1.80;;;;;;;11.07;53.97;100299.27;1645772;84;21436;-87
2021/05/08 10:17:23;;;;;;;4.50;2.00;;;;;;;11.10;54.11;100319.28;1636441;86;21295;-86
2021/05/08 10:19:55;;;;;;;5.15;1.90;;;;;;;10.94;54.71;100322.64;1651588;85;21141;-84
2021/05/08 10:22:24;;;;;;;9.50;2.40;;;;;;;10.80;55.83;100323.17;1649051;84;21214;-84
2021/05/08 10:24:50;;;;;;;8.55;2.50;;;;;;;11.13;55.62;100316.33;1649188;85;21242;-84
2021/05/08 10:27:21;;;;;;;5.45;2.33;;;;;;;11.04;55.88;100329.97;1640099;85;21156;-84
2021/05/08 10:29:51;;;;;;;6.20;2.87;;;;;;;11.46;55.20;100308.06;1641956;84;21230;-83
2021/05/08 10:32:21;;;;;;;6.08;2.50;;;;;;;11.50;55.16;100313.38;1646858;86;21219;-84
2021/05/08 10:35:02;;;;;;;6.92;2.67;;;;;;;11.33;56.30;100315.62;1645840;86;21250;-84
2021/05/08 10:37:29;;;;;;;6.78;2.87;;;;;;;11.54;56.60;100301.16;1642225;85;21213;-84
2021/05/08 10:40:11;;;;;;;7.95;2.83;;;;;;;11.18;56.09;100323.78;1648350;85;22007;-82
2021/05/08 10:42:49;;;;;;;5.87;2.60;;;;;;;11.26;56.30;100309.29;1645614;86;21203;-84
2021/05/08 10:45:24;;;;;;;8.80;2.80;;;;;;;11.91;55.36;100294.69;1643315;85;21255;-86
2021/05/08 10:47:59;;;;;;;6.20;2.77;;;;;;;11.70;54.56;100302.56;1638999;86;21213;-86
2021/05/08 10:50:47;;;;;;;9.08;2.75;;;;;;;11.84;53.19;100307.23;1649151;84;21260;-84
2021/05/08 10:53:18;;;;;;;;;;;;;;;11.85;53.70;100292.17;1649938;84;21259;-85
2021/05/08 10:55:51;;;;;;;9.10;2.85;;;;;;;11.89;54.22;100307.27;1623718;86;20314;-84
2021/05/08 10:58:23;;;;;;;12.60;2.70;;;;;;;12.05;54.68;100311.28;1651189;84;21670;-84
2021/05/08 11:01:00;;;;;;;7.47;2.90;;;;;;;12.03;55.23;100315.92;1638424;85;21218;-84
2021/05/08 11:03:32;;;;;;;8.23;2.80;;;;;;;11.88;54.86;100316.17;1638667;85;21713;-86
2021/05/08 11:06:16;;;;;;;6.72;2.67;;;;;;;11.74;54.45;100318.44;1633620;86;21187;-86
2021/05/08 11:08:49;;;;;;;5.55;2.80;;;;;;;11.58;55.64;100321.03;1636703;86;21773;-86
2021/05/08 11:11:22;;;;;;;6.70;2.72;;;;;;;11.59;55.87;100333.25;1636414;86;21204;-86
2021/05/08 11:14:00;;;;;;;8.93;3.02;;;;;;;11.46;56.49;100322.61;1635299;87;21219;-85
2021/05/08 11:16:29;;;;;;;8.90;2.92;;;;;;;11.77;55.58;100328.70;1635169;86;21287;-85
2021/05/08 11:18:59;;;;;;;7.45;2.70;;;;;;;11.58;53.42;100328.97;1619572;87;21261;-85
2021/05/08 11:21:33;;;;;;;6.20;2.62;;;;;;;11.83;53.12;100313.51;1641602;86;21238;-84
2021/05/08 11:24:05;;;;;;;7.40;2.85;;;;;;;11.94;52.98;100320.36;1629834;85;21227;-82
2021/05/08 11:26:37;;;;;;;5.05;2.27;;;;;;;12.06;52.14;100336.78;1639726;86;22301;-84
2021/05/08 11:29:21;;;;;;;7.55;2.50;;;;;;;11.84;51.38;100345.61;1635191;86;21262;-84
2021/05/08 11:31:52;;;;;;;7.10;2.70;;;;;;;12.29;50.72;100325.56;1612998;87;21207;-86
2021/05/08 11:34:26;;;;;;;10.48;3.33;;;;;;;12.24;51.64;100328.70;1637280;86;21247;-84
2021/05/08 11:37:07;;;;;;;6.35;2.65;;;;;;;12.14;53.06;100326.20;1636198;85;21685;-87
2021/05/08 11:39:40;;;;;;;7.75;2.75;;;;;;;11.95;53.16;100346.34;1630230;86;21174;-85
2021/05/08 11:42:20;;;;;;;6.12;2.90;;;;;;;11.97;53.56;100340.39;1641768;85;21210;-86